createdAt,value
2023-04-06T00:00:59.452Z,94.40
2023-04-06T00:03:26.638Z,94.40
2023-04-06T00:05:54.228Z,94.80
2023-04-06T00:08:22.578Z,95.10
2023-04-06T00:10:49.506Z,94.60
2023-04-06T00:13:16.858Z,95.70
2023-04-06T00:15:43.810Z,95.90
2023-04-06T00:18:10.781Z,96.70
2023-04-06T00:20:37.682Z,95.90
2023-04-06T00:23:04.662Z,95.50
2023-04-06T00:25:31.667Z,96.60
2023-04-06T00:27:58.475Z,97.30
2023-04-06T00:30:25.648Z,97.80
2023-04-06T00:32:52.542Z,98.10
2023-04-06T00:35:19.495Z,98.30
2023-04-06T00:37:48.298Z,99.00
2023-04-06T00:40:15.408Z,98.60
2023-04-06T00:42:42.858Z,98.70
2023-04-06T00:45:10.746Z,98.90
2023-04-06T00:47:37.958Z,99.50
2023-04-06T00:50:06.151Z,99.50
2023-04-06T00:52:33.174Z,99.60
2023-04-06T00:55:00.342Z,99.90
2023-04-06T00:57:28.218Z,99.90
2023-04-06T00:59:57.182Z,99.80
2023-04-06T01:02:26.768Z,99.90
2023-04-06T01:04:56.275Z,99.50
2023-04-06T01:07:37.531Z,99.90
2023-04-06T01:10:27.947Z,99.90
2023-04-06T01:13:23.355Z,99.90
2023-04-06T01:15:56.240Z,99.90
2023-04-06T01:18:43.277Z,99.90
2023-04-06T01:21:16.955Z,99.00
2023-04-06T01:23:59.733Z,99.00
2023-04-06T01:26:36.101Z,98.70
2023-04-06T01:29:07.271Z,98.50
2023-04-06T01:31:34.407Z,98.20
2023-04-06T01:34:01.499Z,98.10
2023-04-06T01:36:28.409Z,98.30
2023-04-06T01:39:04.414Z,98.50
2023-04-06T01:41:35.877Z,98.90
2023-04-06T01:44:03.595Z,99.40
2023-04-06T01:46:31.738Z,99.70
2023-04-06T01:48:59.684Z,99.90
2023-04-06T01:51:41.380Z,99.90
2023-04-06T01:54:12.015Z,99.90
2023-04-06T01:56:53.873Z,99.90
2023-04-06T01:59:31.922Z,99.90
2023-04-06T02:02:01.903Z,99.90
2023-04-06T02:04:30.907Z,99.90
2023-04-06T02:07:08.145Z,99.90
2023-04-06T02:09:35.042Z,99.90
2023-04-06T02:12:02.895Z,99.90
2023-04-06T02:14:32.256Z,99.90
2023-04-06T02:17:01.128Z,99.90
2023-04-06T02:19:28.058Z,99.90
2023-04-06T02:21:54.949Z,99.90
2023-04-06T02:24:22.022Z,99.90
2023-04-06T02:26:48.942Z,99.90
2023-04-06T02:29:16.109Z,99.90
2023-04-06T02:31:43.125Z,99.60
2023-04-06T02:34:12.994Z,99.60
2023-04-06T02:36:48.530Z,99.80
2023-04-06T02:39:15.833Z,99.80
2023-04-06T02:41:42.883Z,99.40
2023-04-06T02:44:10.964Z,99.60
2023-04-06T02:46:41.926Z,99.50
2023-04-06T02:49:09.241Z,99.20
2023-04-06T02:51:36.986Z,99.40
2023-04-06T02:54:26.282Z,99.40
2023-04-06T02:56:53.250Z,98.50
2023-04-06T02:59:21.666Z,98.20
2023-04-06T03:01:59.687Z,98.30
2023-04-06T03:04:26.678Z,98.30
2023-04-06T03:06:56.321Z,98.60
2023-04-06T03:09:34.426Z,98.70
2023-04-06T03:12:02.763Z,98.90
2023-04-06T03:14:33.255Z,98.80
2023-04-06T03:17:00.246Z,99.00
2023-04-06T03:19:27.397Z,99.00
2023-04-06T03:21:57.212Z,98.80
2023-04-06T03:24:25.117Z,98.60
2023-04-06T03:26:51.982Z,98.70
2023-04-06T03:29:19.130Z,98.80
2023-04-06T03:31:46.206Z,98.40
2023-04-06T03:34:35.993Z,98.40
2023-04-06T03:37:09.844Z,98.00
2023-04-06T03:39:40.152Z,98.10
2023-04-06T03:42:07.241Z,98.00
2023-04-06T03:44:36.388Z,97.90
2023-04-06T03:47:04.190Z,98.00
2023-04-06T03:49:32.650Z,98.00
2023-04-06T03:52:01.746Z,97.90
2023-04-06T03:54:29.628Z,97.70
2023-04-06T03:56:56.962Z,97.10
2023-04-06T03:59:27.234Z,97.30
2023-04-06T04:01:54.373Z,97.40
2023-04-06T04:04:21.331Z,97.50
2023-04-06T04:06:48.276Z,97.40
2023-04-06T04:09:15.182Z,97.50
2023-04-06T04:11:42.230Z,97.50
2023-04-06T04:14:09.171Z,97.60
2023-04-06T04:16:36.134Z,97.30
2023-04-06T04:19:03.398Z,97.30
2023-04-06T04:21:32.371Z,97.30
2023-04-06T04:24:03.627Z,97.30
2023-04-06T04:26:33.443Z,97.30
2023-04-06T04:29:00.229Z,97.30
2023-04-06T04:31:27.290Z,97.20
2023-04-06T04:33:58.970Z,97.10
2023-04-06T04:36:30.792Z,97.20
2023-04-06T04:39:02.356Z,97.30
2023-04-06T04:41:32.372Z,97.50
2023-04-06T04:44:00.459Z,97.60
2023-04-06T04:46:28.233Z,97.50
2023-04-06T04:48:55.297Z,97.00
2023-04-06T04:51:22.321Z,97.10
2023-04-06T04:54:02.017Z,97.10
2023-04-06T04:56:31.478Z,97.20
2023-04-06T04:59:08.619Z,97.20
2023-04-06T05:01:53.590Z,97.20
2023-04-06T05:04:24.109Z,97.40
2023-04-06T05:07:07.176Z,97.50
2023-04-06T05:09:36.208Z,97.50
2023-04-06T05:12:03.388Z,97.30
2023-04-06T05:14:34.725Z,97.00
2023-04-06T05:17:04.681Z,97.40
2023-04-06T05:19:31.710Z,97.30
2023-04-06T05:21:58.556Z,97.50
2023-04-06T05:24:26.557Z,97.20
2023-04-06T05:26:54.118Z,97.20
2023-04-06T05:29:24.238Z,97.00
2023-04-06T05:31:52.300Z,96.90
2023-04-06T05:34:19.416Z,97.00
2023-04-06T05:36:47.644Z,97.00
2023-04-06T05:39:21.328Z,97.10
2023-04-06T05:41:51.187Z,97.10
2023-04-06T05:44:27.303Z,96.90
2023-04-06T05:47:03.204Z,96.80
2023-04-06T05:49:30.669Z,96.70
2023-04-06T05:51:57.605Z,96.60
2023-04-06T05:54:24.828Z,96.70
2023-04-06T05:56:57.411Z,96.70
2023-04-06T05:59:24.901Z,96.50
2023-04-06T06:01:51.855Z,96.30
2023-04-06T06:04:20.000Z,96.30
2023-04-06T06:06:48.998Z,96.20
2023-04-06T06:09:19.009Z,96.40
2023-04-06T06:11:56.367Z,96.30
2023-04-06T06:14:29.596Z,96.60
2023-04-06T06:16:56.884Z,97.10
2023-04-06T06:19:24.124Z,97.60
2023-04-06T06:21:54.548Z,98.10
2023-04-06T06:24:22.745Z,98.30
2023-04-06T06:26:49.931Z,98.40
2023-04-06T06:29:18.662Z,98.90
2023-04-06T06:31:45.883Z,99.40
2023-04-06T06:34:14.160Z,99.90
2023-04-06T06:36:42.490Z,99.90
2023-04-06T06:39:12.112Z,99.90
2023-04-06T06:41:39.894Z,99.90
2023-04-06T06:44:07.343Z,99.90
2023-04-06T06:46:35.619Z,99.90
2023-04-06T06:49:02.460Z,99.90
2023-04-06T06:51:29.657Z,99.90
2023-04-06T06:53:56.546Z,99.90
2023-04-06T06:56:23.434Z,99.90
2023-04-06T06:58:52.558Z,99.90
2023-04-06T07:01:19.850Z,99.90
2023-04-06T07:03:47.032Z,99.90
2023-04-06T07:06:13.965Z,99.90
2023-04-06T07:08:41.330Z,99.90
2023-04-06T07:11:08.801Z,99.90
2023-04-06T07:13:35.774Z,99.90
2023-04-06T07:16:03.369Z,99.90
2023-04-06T07:18:30.737Z,99.90
2023-04-06T07:20:59.254Z,99.90
2023-04-06T07:23:26.132Z,99.90
2023-04-06T07:25:54.938Z,99.90
2023-04-06T07:28:21.935Z,99.90
2023-04-06T07:30:48.990Z,99.90
2023-04-06T07:33:16.198Z,99.90
2023-04-06T07:35:43.290Z,99.90
2023-04-06T07:38:11.452Z,99.90
2023-04-06T07:40:40.080Z,99.90
2023-04-06T07:43:07.168Z,99.90
2023-04-06T07:45:34.110Z,99.90
2023-04-06T07:48:02.254Z,99.90
2023-04-06T07:50:30.184Z,99.90
2023-04-06T07:52:59.109Z,99.90
2023-04-06T07:55:26.215Z,99.90
2023-04-06T07:57:53.413Z,99.90
2023-04-06T08:00:20.876Z,99.90
2023-04-06T08:02:47.841Z,99.90
2023-04-06T08:05:15.087Z,99.70
2023-04-06T08:07:42.685Z,99.00
2023-04-06T08:10:09.987Z,98.70
2023-04-06T08:12:36.891Z,98.80
2023-04-06T08:15:04.859Z,98.40
2023-04-06T08:17:32.582Z,97.70
2023-04-06T08:19:59.818Z,97.20
2023-04-06T08:22:26.737Z,97.90
2023-04-06T08:24:54.551Z,98.40
2023-04-06T08:27:21.615Z,98.40
2023-04-06T08:29:50.466Z,98.00
2023-04-06T08:32:17.241Z,98.10
2023-04-06T08:34:44.143Z,98.50
2023-04-06T08:37:11.008Z,99.10
2023-04-06T08:39:37.839Z,99.40
2023-04-06T08:42:04.888Z,99.00
2023-04-06T08:44:33.845Z,99.40
2023-04-06T08:47:01.427Z,99.90
2023-04-06T08:49:29.171Z,99.90
2023-04-06T08:51:56.766Z,99.90
2023-04-06T08:54:23.978Z,99.90
2023-04-06T08:56:51.222Z,99.90
2023-04-06T08:59:18.770Z,99.90
2023-04-06T09:01:47.133Z,99.90
2023-04-06T09:04:14.486Z,99.90
2023-04-06T09:06:42.118Z,99.90
2023-04-06T09:09:09.730Z,99.80
2023-04-06T09:11:51.514Z,99.70
2023-04-06T09:14:33.761Z,99.90
2023-04-06T09:17:00.781Z,99.90
2023-04-06T09:19:27.658Z,99.90
2023-04-06T09:22:10.883Z,99.40
2023-04-06T09:24:47.745Z,99.80
2023-04-06T09:27:15.723Z,99.90
2023-04-06T09:29:44.128Z,99.90
2023-04-06T09:32:12.318Z,99.90
2023-04-06T09:34:40.230Z,99.90
2023-04-06T09:37:17.213Z,99.90
2023-04-06T09:39:44.216Z,99.90
2023-04-06T09:42:11.143Z,99.90
2023-04-06T09:44:38.029Z,99.90
2023-04-06T09:47:09.079Z,99.90
2023-04-06T09:49:36.548Z,99.90
2023-04-06T09:52:07.575Z,99.20
2023-04-06T09:54:37.341Z,98.10
2023-04-06T09:57:26.161Z,96.40
2023-04-06T10:00:04.399Z,96.10
2023-04-06T10:02:51.375Z,96.20
2023-04-06T10:05:31.784Z,96.50
2023-04-06T10:08:02.035Z,96.90
2023-04-06T10:10:29.990Z,96.20
2023-04-06T10:12:58.634Z,96.00
2023-04-06T10:15:26.359Z,95.30
2023-04-06T10:17:53.813Z,95.60
2023-04-06T10:20:23.513Z,94.60
2023-04-06T10:23:00.284Z,94.80
2023-04-06T10:25:34.370Z,95.20
2023-04-06T10:28:09.217Z,95.50
2023-04-06T10:30:42.401Z,95.40
2023-04-06T10:33:16.900Z,95.00
2023-04-06T10:35:44.063Z,94.90
2023-04-06T10:38:12.779Z,95.20
2023-04-06T10:40:41.602Z,95.30
2023-04-06T10:43:09.602Z,95.70
2023-04-06T10:45:37.149Z,96.10
2023-04-06T10:48:18.312Z,95.80
2023-04-06T10:50:50.270Z,95.90
2023-04-06T10:53:28.268Z,95.50
2023-04-06T10:55:58.161Z,94.80
2023-04-06T10:58:28.640Z,95.20
2023-04-06T11:00:56.920Z,95.30
2023-04-06T11:03:24.242Z,95.40
2023-04-06T11:05:52.492Z,95.70
2023-04-06T11:08:30.739Z,95.50
2023-04-06T11:11:09.099Z,96.40
2023-04-06T11:13:42.342Z,96.90
2023-04-06T11:16:30.582Z,97.80
2023-04-06T11:19:07.115Z,98.30
2023-04-06T11:21:41.599Z,99.40
2023-04-06T11:24:17.249Z,99.90
2023-04-06T11:26:49.798Z,99.90
2023-04-06T11:29:18.455Z,99.90
2023-04-06T11:31:53.460Z,99.90
2023-04-06T11:34:22.385Z,99.90
2023-04-06T11:36:55.336Z,98.50
2023-04-06T11:39:26.984Z,97.20
2023-04-06T11:42:00.918Z,97.10
2023-04-06T11:44:39.783Z,97.10
2023-04-06T11:47:09.137Z,97.10
2023-04-06T11:49:39.146Z,95.90
2023-04-06T11:52:16.837Z,96.70
2023-04-06T11:54:43.680Z,96.70
2023-04-06T11:57:10.711Z,97.70
2023-04-06T11:59:37.788Z,97.30
2023-04-06T12:02:05.396Z,97.00
2023-04-06T12:04:32.668Z,96.50
2023-04-06T12:07:01.334Z,96.70
2023-04-06T12:09:28.396Z,97.50
2023-04-06T12:11:56.942Z,97.20
2023-04-06T12:14:24.413Z,98.00
2023-04-06T12:16:51.308Z,98.30
2023-04-06T12:19:18.620Z,97.60
2023-04-06T12:21:45.660Z,97.70
2023-04-06T12:24:12.985Z,97.30
2023-04-06T12:26:39.889Z,97.70
2023-04-06T12:29:09.548Z,97.90
2023-04-06T12:31:37.323Z,97.80
2023-04-06T12:34:04.688Z,98.00
2023-04-06T12:36:32.550Z,97.30
2023-04-06T12:38:59.962Z,96.90
2023-04-06T12:41:27.068Z,96.70
2023-04-06T12:43:54.552Z,95.70
2023-04-06T12:46:21.920Z,96.20
2023-04-06T12:48:49.210Z,96.00
2023-04-06T12:51:16.846Z,95.70
2023-04-06T12:53:43.761Z,96.20
2023-04-06T12:56:18.562Z,97.20
2023-04-06T12:58:46.564Z,97.30
2023-04-06T13:01:16.942Z,97.70
2023-04-06T13:03:44.139Z,98.70
2023-04-06T13:06:11.937Z,98.80
2023-04-06T13:08:39.788Z,99.30
2023-04-06T13:11:09.922Z,99.80
2023-04-06T13:13:37.509Z,99.90
2023-04-06T13:16:09.571Z,99.90
2023-04-06T13:18:39.664Z,99.90
2023-04-06T13:21:08.108Z,99.70
2023-04-06T13:23:36.400Z,99.20
2023-04-06T13:26:08.016Z,98.70
2023-04-06T13:28:36.548Z,98.60
2023-04-06T13:31:04.281Z,97.90
2023-04-06T13:33:31.960Z,97.70
2023-04-06T13:35:59.792Z,97.90
2023-04-06T13:38:26.858Z,98.10
2023-04-06T13:40:53.993Z,99.00
2023-04-06T13:43:21.655Z,99.90
2023-04-06T13:45:55.151Z,99.90
2023-04-06T13:48:22.533Z,99.90
2023-04-06T13:50:49.466Z,99.90
2023-04-06T13:53:16.944Z,99.90
2023-04-06T13:55:43.968Z,99.90
2023-04-06T13:58:10.939Z,99.90
2023-04-06T14:00:38.278Z,99.90
2023-04-06T14:03:05.471Z,99.90
2023-04-06T14:05:34.002Z,99.50
2023-04-06T14:08:00.984Z,98.40
2023-04-06T14:10:29.055Z,98.40
2023-04-06T14:12:56.975Z,98.60
2023-04-06T14:15:25.068Z,98.50
2023-04-06T14:17:52.510Z,98.80
2023-04-06T14:20:20.612Z,98.20
2023-04-06T14:22:47.897Z,97.80
2023-04-06T14:25:14.985Z,97.10
2023-04-06T14:27:43.482Z,96.50
2023-04-06T14:30:11.566Z,96.10
2023-04-06T14:32:38.543Z,94.80
2023-04-06T14:35:07.856Z,94.90
2023-04-06T14:37:35.697Z,94.20
2023-04-06T14:40:03.721Z,94.20
2023-04-06T14:42:30.754Z,92.90
2023-04-06T14:44:57.722Z,92.70
2023-04-06T14:47:24.787Z,92.50
2023-04-06T14:49:52.993Z,91.60
2023-04-06T14:52:20.006Z,89.10
2023-04-06T14:54:46.887Z,88.50
2023-04-06T14:57:13.821Z,88.00
2023-04-06T14:59:40.812Z,86.70
2023-04-06T15:02:08.185Z,82.60
2023-04-06T15:04:37.342Z,76.80
2023-04-06T15:07:04.696Z,79.00
2023-04-06T15:09:32.329Z,78.10
2023-04-06T15:11:59.232Z,77.60
2023-04-06T15:14:26.180Z,76.00
2023-04-06T15:16:53.147Z,76.00
2023-04-06T15:19:20.272Z,78.90
2023-04-06T15:21:47.193Z,79.80
2023-04-06T15:24:14.059Z,79.20
2023-04-06T15:26:40.991Z,80.10
2023-04-06T15:29:07.980Z,84.50
2023-04-06T15:31:38.353Z,86.90
2023-04-06T15:34:08.862Z,87.70
2023-04-06T15:36:36.531Z,90.30
2023-04-06T15:39:04.572Z,91.20
2023-04-06T15:41:32.149Z,90.60
2023-04-06T15:43:59.448Z,91.00
2023-04-06T15:46:28.291Z,91.20
2023-04-06T15:48:56.147Z,90.70
2023-04-06T15:51:24.126Z,89.70
2023-04-06T15:53:51.133Z,89.30
2023-04-06T15:56:18.072Z,90.40
2023-04-06T15:58:45.232Z,90.90
2023-04-06T16:01:16.892Z,88.40
2023-04-06T16:03:44.518Z,89.60
2023-04-06T16:06:12.124Z,87.40
2023-04-06T16:08:40.470Z,88.30
2023-04-06T16:11:07.850Z,88.30
2023-04-06T16:13:34.923Z,88.40
2023-04-06T16:16:01.934Z,87.80
2023-04-06T16:18:29.292Z,86.50
2023-04-06T16:20:56.286Z,86.70
2023-04-06T16:23:23.479Z,87.50
2023-04-06T16:25:54.408Z,88.40
2023-04-06T16:28:23.313Z,90.50
2023-04-06T16:30:50.148Z,92.00
2023-04-06T16:33:19.376Z,92.40
2023-04-06T16:35:47.418Z,92.80
2023-04-06T16:38:15.058Z,93.50
2023-04-06T16:40:42.376Z,93.80
2023-04-06T16:43:10.084Z,93.90
2023-04-06T16:45:38.291Z,94.10
2023-04-06T16:48:06.100Z,94.60
2023-04-06T16:50:33.494Z,94.90
2023-04-06T16:53:00.629Z,94.80
2023-04-06T16:55:27.563Z,95.00
2023-04-06T16:57:56.431Z,95.30
2023-04-06T17:00:23.521Z,95.70
2023-04-06T17:02:50.636Z,96.30
2023-04-06T17:05:21.924Z,96.60
2023-04-06T17:07:49.018Z,96.60
2023-04-06T17:10:17.592Z,97.20
2023-04-06T17:12:47.332Z,97.70
2023-04-06T17:15:14.543Z,97.80
2023-04-06T17:17:42.122Z,98.40
2023-04-06T17:20:09.665Z,98.80
2023-04-06T17:22:36.988Z,99.00
2023-04-06T17:25:05.464Z,98.50
2023-04-06T17:27:32.382Z,98.40
2023-04-06T17:30:04.959Z,98.40
2023-04-06T17:32:34.755Z,98.60
2023-04-06T17:35:01.724Z,98.80
2023-04-06T17:37:28.943Z,99.10
2023-04-06T17:39:57.061Z,99.50
2023-04-06T17:44:52.567Z,99.00
2023-04-06T17:47:20.354Z,98.40
2023-04-06T17:49:47.362Z,97.90
2023-04-06T17:52:14.353Z,97.80
2023-04-06T17:54:41.436Z,97.50
2023-04-06T17:57:08.636Z,97.30
2023-04-06T17:59:35.502Z,97.10
2023-04-06T18:02:04.398Z,97.20
2023-04-06T18:04:31.442Z,97.50
2023-04-06T18:06:58.430Z,97.60
2023-04-06T18:11:53.211Z,98.20
2023-04-06T18:14:20.117Z,98.60
2023-04-06T18:16:47.151Z,99.10
2023-04-06T18:19:14.598Z,99.50
2023-04-06T18:21:41.560Z,99.50
2023-04-06T18:24:12.319Z,99.60
2023-04-06T18:26:42.217Z,99.80
2023-04-06T18:29:09.641Z,99.60
2023-04-06T18:34:08.320Z,99.90
2023-04-06T18:36:35.601Z,99.90
2023-04-06T18:39:02.649Z,99.90
2023-04-06T18:41:29.515Z,99.90
2023-04-06T18:43:56.499Z,99.90
2023-04-06T18:46:25.048Z,99.90
2023-04-06T18:48:52.014Z,99.90
2023-04-06T18:51:19.086Z,99.90
2023-04-06T18:53:46.112Z,99.90
2023-04-06T18:56:18.912Z,99.90
2023-04-06T18:58:48.131Z,99.90
2023-04-06T19:01:28.430Z,99.90
2023-04-06T19:03:57.071Z,99.90
2023-04-06T19:06:27.071Z,99.90
2023-04-06T19:08:54.257Z,99.90
2023-04-06T19:11:25.217Z,99.90
2023-04-06T19:13:54.200Z,99.90
2023-04-06T19:16:21.413Z,99.90
2023-04-06T19:18:48.484Z,99.90
2023-04-06T19:21:20.617Z,99.90
2023-04-06T19:23:49.731Z,99.90
2023-04-06T19:26:17.970Z,99.90
2023-04-06T19:28:46.166Z,99.90
2023-04-06T19:31:14.771Z,99.90
2023-04-06T19:33:42.300Z,99.90
2023-04-06T19:36:09.908Z,99.90
2023-04-06T19:38:37.772Z,99.90
2023-04-06T19:41:05.011Z,99.90
2023-04-06T19:43:32.045Z,99.90
2023-04-06T19:45:58.917Z,99.90
2023-04-06T19:48:25.817Z,99.90
2023-04-06T19:50:54.766Z,99.90
2023-04-06T19:53:22.596Z,99.90
2023-04-06T19:55:49.599Z,99.90
2023-04-06T19:58:16.653Z,99.90
2023-04-06T20:00:43.543Z,99.90
2023-04-06T20:03:10.934Z,99.90
2023-04-06T20:05:38.558Z,99.90
2023-04-06T20:08:05.659Z,99.90
2023-04-06T20:10:32.583Z,99.90
2023-04-06T20:13:01.480Z,99.90
2023-04-06T20:15:29.626Z,99.90
2023-04-06T20:17:56.558Z,99.90
2023-04-06T20:20:23.708Z,99.90
2023-04-06T20:22:50.929Z,99.90
2023-04-06T20:25:18.714Z,99.90
2023-04-06T20:27:45.958Z,99.90
2023-04-06T20:30:16.864Z,99.90
2023-04-06T20:32:44.099Z,99.90
2023-04-06T20:35:11.600Z,99.90
2023-04-06T20:37:38.907Z,99.90
2023-04-06T20:40:06.713Z,99.90
2023-04-06T20:42:34.481Z,99.90
2023-04-06T20:45:02.761Z,99.90
2023-04-06T20:47:30.364Z,99.90
2023-04-06T20:49:57.982Z,99.90
2023-04-06T20:52:25.116Z,99.90
2023-04-06T20:54:52.096Z,99.90
2023-04-06T20:57:19.094Z,99.90
2023-04-06T20:59:46.189Z,99.90
2023-04-06T21:02:13.324Z,99.90
2023-04-06T21:04:40.854Z,99.90
2023-04-06T21:07:08.012Z,99.90
2023-04-06T21:09:39.142Z,99.90
2023-04-06T21:12:07.371Z,99.90
2023-04-06T21:14:34.300Z,99.90
2023-04-06T21:17:01.212Z,99.90
2023-04-06T21:19:28.136Z,99.90
2023-04-06T21:21:55.427Z,99.90
2023-04-06T21:24:22.309Z,99.90
2023-04-06T21:26:49.262Z,99.90
2023-04-06T21:29:16.148Z,99.90
2023-04-06T21:31:43.050Z,99.90
2023-04-06T21:34:11.735Z,99.90
2023-04-06T21:36:39.198Z,99.90
2023-04-06T21:39:07.306Z,99.90
2023-04-06T21:41:34.488Z,99.90
2023-04-06T21:44:01.361Z,99.90
2023-04-06T21:46:28.283Z,99.90
2023-04-06T21:48:55.299Z,99.90
2023-04-06T21:51:23.029Z,99.90
2023-04-06T21:53:50.257Z,99.90
2023-04-06T21:56:24.376Z,99.90
2023-04-06T21:58:52.312Z,99.90
2023-04-06T22:01:20.025Z,99.90
2023-04-06T22:03:47.501Z,99.90
2023-04-06T22:06:14.599Z,99.90
2023-04-06T22:08:41.965Z,99.90
2023-04-06T22:11:11.508Z,99.90
2023-04-06T22:13:39.425Z,99.90
2023-04-06T22:16:07.211Z,99.90
2023-04-06T22:18:36.637Z,99.90
2023-04-06T22:21:05.560Z,99.90
2023-04-06T22:23:32.509Z,99.90
2023-04-06T22:25:59.509Z,99.90
2023-04-06T22:28:27.256Z,99.90
2023-04-06T22:30:54.256Z,99.90
2023-04-06T22:33:21.633Z,99.90
2023-04-06T22:35:48.680Z,99.90
2023-04-06T22:38:15.720Z,99.90
2023-04-06T22:40:42.762Z,99.90
2023-04-06T22:43:09.812Z,99.90
2023-04-06T22:45:36.736Z,99.90
2023-04-06T22:48:03.815Z,99.90
2023-04-06T22:50:31.541Z,99.90
2023-04-06T22:52:58.463Z,99.90
2023-04-06T22:55:25.508Z,99.90
2023-04-06T22:57:52.454Z,99.90
2023-04-06T23:00:19.489Z,99.90
2023-04-06T23:02:46.509Z,99.90
2023-04-06T23:05:13.485Z,99.90
2023-04-06T23:07:40.313Z,99.90
2023-04-06T23:10:07.964Z,99.90
2023-04-06T23:12:34.927Z,99.90
2023-04-06T23:15:01.807Z,99.90
2023-04-06T23:17:28.802Z,99.90
2023-04-06T23:19:55.837Z,99.90
2023-04-06T23:22:22.657Z,99.90
2023-04-06T23:24:50.140Z,99.90
2023-04-06T23:27:17.095Z,99.90
2023-04-06T23:29:43.952Z,99.90
2023-04-06T23:32:10.965Z,99.90
2023-04-06T23:34:37.945Z,99.90
2023-04-06T23:37:04.959Z,99.90
2023-04-06T23:39:32.065Z,99.90
2023-04-06T23:41:59.027Z,99.90
2023-04-06T23:44:29.756Z,99.90
2023-04-06T23:46:57.252Z,99.90
2023-04-06T23:49:24.260Z,99.90
2023-04-06T23:51:51.189Z,99.90
2023-04-06T23:54:18.147Z,99.90
2023-04-06T23:56:45.058Z,99.90
2023-04-06T23:59:12.003Z,99.90
